createdAt,value
2022-10-03T00:00:42.100Z,11.80
2022-10-03T00:03:52.727Z,11.80
2022-10-03T00:06:52.765Z,11.70
2022-10-03T00:09:42.772Z,11.70
2022-10-03T00:12:17.835Z,11.60
2022-10-03T00:15:02.380Z,11.60
2022-10-03T00:17:43.688Z,11.60
2022-10-03T00:20:31.801Z,11.70
2022-10-03T00:23:09.298Z,11.70
2022-10-03T00:25:57.022Z,11.70
2022-10-03T00:29:01.986Z,11.70
2022-10-03T00:31:43.457Z,11.80
2022-10-03T00:34:26.652Z,11.80
2022-10-03T00:36:53.180Z,11.80
2022-10-03T00:39:50.760Z,11.80
2022-10-03T00:42:36.134Z,11.80
2022-10-03T00:45:27.598Z,11.90
2022-10-03T00:48:08.655Z,11.90
2022-10-03T00:50:48.233Z,11.90
2022-10-03T00:53:41.432Z,12.00
2022-10-03T00:56:34.237Z,11.90
2022-10-03T00:59:45.100Z,11.90
2022-10-03T01:02:33.877Z,11.90
2022-10-03T01:05:36.055Z,11.90
2022-10-03T01:08:05.407Z,12.00
2022-10-03T01:10:36.439Z,12.00
2022-10-03T01:13:18.859Z,11.90
2022-10-03T01:15:56.576Z,12.00
2022-10-03T01:18:57.408Z,12.00
2022-10-03T01:21:42.878Z,12.00
2022-10-03T01:24:42.961Z,12.00
2022-10-03T01:27:18.556Z,12.00
2022-10-03T01:30:16.356Z,12.00
2022-10-03T01:32:55.286Z,12.00
2022-10-03T01:35:39.152Z,12.00
2022-10-03T01:38:08.791Z,12.00
2022-10-03T01:40:50.659Z,12.00
2022-10-03T01:43:24.977Z,12.00
2022-10-03T01:46:26.430Z,12.00
2022-10-03T01:49:10.852Z,11.90
2022-10-03T01:51:57.220Z,11.80
2022-10-03T01:54:49.145Z,11.80
2022-10-03T01:57:27.393Z,11.80
2022-10-03T02:00:13.276Z,11.70
2022-10-03T02:03:04.891Z,11.70
2022-10-03T02:05:57.628Z,11.70
2022-10-03T02:08:42.293Z,11.70
2022-10-03T02:11:10.848Z,11.60
2022-10-03T02:14:12.393Z,11.60
2022-10-03T02:16:44.271Z,11.60
2022-10-03T02:19:48.261Z,11.50
2022-10-03T02:22:43.532Z,11.50
2022-10-03T02:25:36.448Z,11.50
2022-10-03T02:28:34.428Z,11.50
2022-10-03T02:31:43.413Z,11.40
2022-10-03T02:34:31.912Z,11.40
2022-10-03T02:37:35.413Z,11.40
2022-10-03T02:40:39.134Z,11.40
2022-10-03T02:43:26.769Z,11.40
2022-10-03T02:46:18.168Z,11.40
2022-10-03T02:49:13.724Z,11.30
2022-10-03T02:51:59.355Z,11.20
2022-10-03T02:54:28.616Z,11.30
2022-10-03T02:57:23.213Z,11.30
2022-10-03T03:00:14.560Z,11.30
2022-10-03T03:03:12.988Z,11.30
2022-10-03T03:06:06.116Z,11.20
2022-10-03T03:08:49.516Z,11.20
2022-10-03T03:11:43.264Z,11.30
2022-10-03T03:14:38.566Z,11.30
2022-10-03T03:17:14.052Z,11.30
2022-10-03T03:19:55.712Z,11.40
2022-10-03T03:22:51.984Z,11.40
2022-10-03T03:25:37.495Z,11.40
2022-10-03T03:28:19.485Z,11.40
2022-10-03T03:31:05.199Z,11.40
2022-10-03T03:33:37.251Z,11.50
2022-10-03T03:36:30.720Z,11.50
2022-10-03T03:39:17.810Z,11.50
2022-10-03T03:42:23.723Z,11.40
2022-10-03T03:45:02.551Z,11.40
2022-10-03T03:47:54.422Z,11.30
2022-10-03T03:50:34.559Z,11.30
2022-10-03T03:53:10.116Z,11.20
2022-10-03T03:56:21.516Z,11.20
2022-10-03T03:58:56.680Z,11.10
2022-10-03T04:01:51.971Z,11.10
2022-10-03T04:04:51.930Z,11.20
2022-10-03T04:07:33.328Z,11.20
2022-10-03T04:10:10.569Z,11.10
2022-10-03T04:12:43.892Z,11.10
2022-10-03T04:15:44.719Z,11.10
2022-10-03T04:18:57.820Z,11.10
2022-10-03T04:21:34.892Z,11.10
2022-10-03T04:24:25.620Z,11.20
2022-10-03T04:27:04.403Z,11.10
2022-10-03T04:30:00.786Z,11.10
2022-10-03T04:32:34.820Z,11.10
2022-10-03T04:35:23.362Z,11.10
2022-10-03T04:37:58.188Z,11.10
2022-10-03T04:40:45.368Z,11.10
2022-10-03T04:43:16.634Z,11.10
2022-10-03T04:45:46.045Z,11.10
2022-10-03T04:48:28.889Z,11.00
2022-10-03T04:51:26.425Z,11.00
2022-10-03T04:54:23.616Z,11.00
2022-10-03T04:57:09.136Z,10.90
2022-10-03T04:59:45.336Z,10.90
2022-10-03T05:02:36.817Z,10.90
2022-10-03T05:05:34.409Z,10.80
2022-10-03T05:08:07.058Z,10.70
2022-10-03T05:10:39.395Z,10.60
2022-10-03T05:13:19.826Z,10.60
2022-10-03T05:16:04.791Z,10.60
2022-10-03T05:18:41.394Z,10.50
2022-10-03T05:21:14.342Z,10.50
2022-10-03T05:24:20.138Z,10.60
2022-10-03T05:26:59.714Z,10.60
2022-10-03T05:29:43.923Z,10.50
2022-10-03T05:32:30.224Z,10.50
2022-10-03T05:34:59.755Z,10.50
2022-10-03T05:37:40.449Z,10.50
2022-10-03T05:40:26.044Z,10.50
2022-10-03T05:42:52.550Z,10.50
2022-10-03T05:45:25.516Z,10.50
2022-10-03T05:48:02.117Z,10.60
2022-10-03T05:50:41.930Z,10.60
2022-10-03T05:53:19.578Z,10.60
2022-10-03T05:56:01.376Z,10.60
2022-10-03T05:59:09.578Z,10.70
2022-10-03T06:02:01.500Z,10.70
2022-10-03T06:04:37.141Z,10.80
2022-10-03T06:07:10.068Z,10.80
2022-10-03T06:09:50.624Z,10.80
2022-10-03T06:12:40.647Z,10.90
2022-10-03T06:18:56.171Z,10.90
2022-10-03T06:21:47.269Z,11.00
2022-10-03T06:24:20.429Z,11.00
2022-10-03T06:27:38.357Z,11.00
2022-10-03T06:30:40.358Z,11.10
2022-10-03T06:33:35.091Z,11.10
2022-10-03T06:36:15.272Z,11.20
2022-10-03T06:39:18.877Z,11.20
2022-10-03T06:42:23.414Z,11.20
2022-10-03T06:45:09.645Z,11.30
2022-10-03T06:47:52.500Z,11.30
2022-10-03T06:50:35.566Z,11.30
2022-10-03T06:53:13.829Z,11.30
2022-10-03T06:55:49.671Z,11.40
2022-10-03T06:58:45.900Z,11.40
2022-10-03T07:01:12.526Z,11.40
2022-10-03T07:03:51.237Z,11.50
2022-10-03T07:06:55.528Z,11.50
2022-10-03T07:09:36.848Z,11.70
2022-10-03T07:12:35.798Z,11.80
2022-10-03T07:15:14.818Z,12.00
2022-10-03T07:17:41.384Z,12.10
2022-10-03T07:20:32.383Z,12.10
2022-10-03T07:23:34.151Z,12.20
2022-10-03T07:26:22.716Z,12.30
2022-10-03T07:29:12.872Z,12.40
2022-10-03T07:31:49.006Z,12.50
2022-10-03T07:34:24.479Z,12.60
2022-10-03T07:37:50.289Z,12.80
2022-10-03T07:40:25.708Z,12.90
2022-10-03T07:43:03.435Z,13.00
2022-10-03T07:46:04.957Z,13.10
2022-10-03T07:48:56.352Z,13.10
2022-10-03T07:51:29.655Z,13.10
2022-10-03T07:54:07.783Z,13.20
2022-10-03T07:57:00.515Z,13.30
2022-10-03T07:59:45.919Z,13.40
2022-10-03T08:02:39.587Z,13.60
2022-10-03T08:05:25.249Z,13.70
2022-10-03T08:08:19.742Z,13.80
2022-10-03T08:11:05.661Z,13.80
2022-10-03T08:14:32.762Z,13.90
2022-10-03T08:17:32.022Z,14.00
2022-10-03T08:20:35.830Z,14.10
2022-10-03T08:23:39.965Z,14.10
2022-10-03T08:26:26.812Z,14.00
2022-10-03T08:29:08.677Z,14.10
2022-10-03T08:31:44.912Z,14.20
2022-10-03T08:34:33.503Z,14.30
2022-10-03T08:37:31.269Z,14.40
2022-10-03T08:40:20.048Z,14.50
2022-10-03T08:43:14.732Z,14.50
2022-10-03T08:46:12.084Z,14.60
2022-10-03T08:49:13.052Z,14.70
2022-10-03T08:51:42.999Z,14.60
2022-10-03T08:54:44.918Z,14.60
2022-10-03T08:57:45.804Z,14.50
2022-10-03T09:00:18.348Z,14.60
2022-10-03T09:03:33.378Z,14.70
2022-10-03T09:06:24.586Z,14.70
2022-10-03T09:09:13.467Z,14.70
2022-10-03T09:12:17.790Z,14.70
2022-10-03T09:15:18.222Z,14.80
2022-10-03T09:18:15.488Z,14.80
2022-10-03T09:21:19.869Z,14.80
2022-10-03T09:24:00.860Z,14.90
2022-10-03T09:27:00.507Z,15.10
2022-10-03T09:29:53.302Z,15.10
2022-10-03T09:32:42.198Z,15.10
2022-10-03T09:35:48.547Z,15.20
2022-10-03T09:38:50.223Z,15.40
2022-10-03T09:41:37.998Z,15.30
2022-10-03T09:44:19.747Z,15.30
2022-10-03T09:47:23.276Z,15.30
2022-10-03T09:50:29.466Z,15.40
2022-10-03T09:53:27.824Z,15.50
2022-10-03T09:56:13.067Z,15.60
2022-10-03T09:59:17.274Z,15.50
2022-10-03T10:02:07.283Z,15.50
2022-10-03T10:04:56.727Z,15.50
2022-10-03T10:07:29.550Z,15.70
2022-10-03T10:10:26.915Z,15.60
2022-10-03T10:13:12.366Z,15.50
2022-10-03T10:16:16.845Z,15.30
2022-10-03T10:19:17.813Z,15.20
2022-10-03T10:22:22.207Z,15.10
2022-10-03T10:25:25.036Z,15.10
2022-10-03T10:28:12.031Z,15.30
2022-10-03T10:30:58.562Z,15.50
2022-10-03T10:34:05.611Z,15.60
2022-10-03T10:37:20.417Z,15.80
2022-10-03T10:40:14.716Z,15.80
2022-10-03T10:43:18.957Z,15.80
2022-10-03T10:46:06.709Z,15.60
2022-10-03T10:49:03.663Z,15.60
2022-10-03T10:52:08.466Z,15.60
2022-10-03T10:54:56.354Z,15.60
2022-10-03T10:57:32.465Z,15.60
2022-10-03T11:00:26.102Z,15.60
2022-10-03T11:03:04.651Z,15.80
2022-10-03T11:06:14.324Z,15.80
2022-10-03T11:09:00.724Z,15.80
2022-10-03T11:11:39.469Z,15.80
2022-10-03T11:14:38.332Z,15.90
2022-10-03T11:17:42.215Z,16.00
2022-10-03T11:21:05.043Z,15.70
2022-10-03T11:23:58.992Z,15.40
2022-10-03T11:27:00.097Z,15.40
2022-10-03T11:29:40.817Z,15.40
2022-10-03T11:32:40.698Z,15.30
2022-10-03T11:35:32.142Z,15.20
2022-10-03T11:38:13.426Z,15.30
2022-10-03T11:41:01.977Z,15.40
2022-10-03T11:43:50.256Z,15.50
2022-10-03T11:46:32.741Z,15.60
2022-10-03T11:49:10.541Z,15.90
2022-10-03T11:52:04.524Z,16.20
2022-10-03T11:54:39.323Z,16.30
2022-10-03T11:57:28.441Z,16.20
2022-10-03T12:00:14.207Z,16.00
2022-10-03T12:02:52.033Z,15.90
2022-10-03T12:05:46.592Z,16.00
2022-10-03T12:08:49.007Z,15.80
2022-10-03T12:11:23.905Z,15.70
2022-10-03T12:14:11.914Z,15.50
2022-10-03T12:16:45.226Z,15.50
2022-10-03T12:19:52.247Z,15.60
2022-10-03T12:22:35.828Z,15.70
2022-10-03T12:25:30.124Z,15.80
2022-10-03T12:28:23.964Z,15.80
2022-10-03T12:31:04.121Z,15.80
2022-10-03T12:34:06.220Z,15.90
2022-10-03T12:36:48.568Z,15.90
2022-10-03T12:39:54.895Z,15.90
2022-10-03T12:42:48.551Z,16.10
2022-10-03T12:45:27.476Z,16.20
2022-10-03T12:48:13.196Z,16.10
2022-10-03T12:51:04.833Z,16.00
2022-10-03T12:53:48.061Z,16.00
2022-10-03T12:56:23.371Z,16.00
2022-10-03T12:59:08.444Z,16.20
2022-10-03T13:01:50.118Z,16.10
2022-10-03T13:04:35.111Z,16.10
2022-10-03T13:07:32.259Z,16.10
2022-10-03T13:10:11.785Z,16.30
2022-10-03T13:12:41.245Z,16.30
2022-10-03T13:15:31.890Z,16.10
2022-10-03T13:18:21.493Z,16.00
2022-10-03T13:21:01.024Z,16.00
2022-10-03T13:23:42.696Z,16.10
2022-10-03T13:26:20.530Z,16.10
2022-10-03T13:28:55.012Z,16.10
2022-10-03T13:31:26.860Z,16.10
2022-10-03T13:33:58.416Z,16.10
2022-10-03T13:36:34.474Z,16.20
2022-10-03T13:39:13.665Z,16.40
2022-10-03T13:42:02.065Z,16.40
2022-10-03T13:44:40.511Z,16.50
2022-10-03T13:47:22.243Z,16.60
2022-10-03T13:50:01.607Z,16.50
2022-10-03T13:52:57.327Z,16.50
2022-10-03T13:55:31.720Z,16.60
2022-10-03T13:58:35.950Z,16.70
2022-10-03T14:01:03.371Z,16.70
2022-10-03T14:03:35.712Z,16.30
2022-10-03T14:06:26.783Z,16.20
2022-10-03T14:09:18.288Z,16.10
2022-10-03T14:11:50.035Z,16.00
2022-10-03T14:14:38.196Z,16.00
2022-10-03T14:17:19.907Z,16.00
2022-10-03T14:19:55.708Z,16.20
2022-10-03T14:22:51.108Z,16.30
2022-10-03T14:26:00.335Z,16.40
2022-10-03T14:28:58.320Z,16.40
2022-10-03T14:31:41.329Z,16.40
2022-10-03T14:34:31.378Z,16.40
2022-10-03T14:37:24.366Z,16.30
2022-10-03T14:39:58.700Z,16.20
2022-10-03T14:42:53.654Z,16.30
2022-10-03T14:45:47.197Z,16.40
2022-10-03T14:48:31.567Z,16.30
2022-10-03T14:51:25.010Z,16.20
2022-10-03T14:53:57.221Z,16.40
2022-10-03T14:56:24.710Z,16.40
2022-10-03T14:58:57.024Z,16.10
2022-10-03T15:01:25.602Z,16.00
2022-10-03T15:04:06.176Z,16.10
2022-10-03T15:06:34.516Z,16.10
2022-10-03T15:09:26.902Z,16.10
2022-10-03T15:12:04.543Z,16.00
2022-10-03T15:14:39.443Z,16.10
2022-10-03T15:17:20.678Z,16.00
2022-10-03T15:19:54.760Z,16.00
2022-10-03T15:22:27.414Z,15.90
2022-10-03T15:24:59.296Z,15.90
2022-10-03T15:27:27.531Z,15.90
2022-10-03T15:29:58.964Z,15.80
2022-10-03T15:32:32.865Z,15.80
2022-10-03T15:35:02.081Z,15.90
2022-10-03T15:37:45.292Z,15.90
2022-10-03T15:40:35.226Z,15.80
2022-10-03T15:43:12.893Z,15.80
2022-10-03T15:45:40.629Z,15.80
2022-10-03T15:48:13.124Z,15.90
2022-10-03T15:50:43.446Z,15.90
2022-10-03T15:53:37.366Z,16.00
2022-10-03T15:56:29.701Z,15.90
2022-10-03T15:59:05.869Z,16.00
2022-10-03T16:01:40.783Z,16.10
2022-10-03T16:04:31.264Z,16.30
2022-10-03T16:07:11.025Z,16.40
2022-10-03T16:10:04.670Z,16.40
2022-10-03T16:12:56.557Z,16.20
2022-10-03T16:15:37.637Z,16.10
2022-10-03T16:18:19.219Z,15.90
2022-10-03T16:21:05.184Z,15.80
2022-10-03T16:23:43.501Z,15.70
2022-10-03T16:26:43.237Z,15.60
2022-10-03T16:29:19.237Z,15.60
2022-10-03T16:32:09.782Z,15.60
2022-10-03T16:34:41.784Z,15.60
2022-10-03T16:37:37.033Z,15.50
2022-10-03T16:40:08.008Z,15.50
2022-10-03T16:42:44.852Z,15.50
2022-10-03T16:45:33.121Z,15.40
2022-10-03T16:48:21.839Z,15.30
2022-10-03T16:50:52.723Z,15.20
2022-10-03T16:53:21.895Z,15.20
2022-10-03T16:56:00.099Z,15.20
2022-10-03T16:58:30.686Z,15.20
2022-10-03T17:01:26.837Z,15.10
2022-10-03T17:04:15.600Z,15.10
2022-10-03T17:06:47.154Z,15.00
2022-10-03T17:09:36.460Z,15.00
2022-10-03T17:12:08.101Z,14.90
2022-10-03T17:14:39.048Z,14.90
2022-10-03T17:17:24.727Z,14.80
2022-10-03T17:20:17.200Z,14.90
2022-10-03T17:22:50.814Z,14.90
2022-10-03T17:25:18.160Z,14.90
2022-10-03T17:27:49.447Z,14.90
2022-10-03T17:30:43.602Z,14.90
2022-10-03T17:33:25.393Z,14.80
2022-10-03T17:36:13.932Z,14.70
2022-10-03T17:38:53.341Z,14.60
2022-10-03T17:41:27.156Z,14.50
2022-10-03T17:44:35.078Z,14.50
2022-10-03T17:47:06.603Z,14.40
2022-10-03T17:49:47.605Z,14.30
2022-10-03T17:52:19.053Z,14.20
2022-10-03T17:54:56.010Z,14.30
2022-10-03T17:57:37.377Z,14.30
2022-10-03T18:00:15.676Z,14.30
2022-10-03T18:02:46.926Z,14.20
2022-10-03T18:05:13.505Z,14.20
2022-10-03T18:07:43.214Z,14.10
2022-10-03T18:10:25.340Z,14.10
2022-10-03T18:12:55.712Z,14.10
2022-10-03T18:15:42.385Z,14.10
2022-10-03T18:18:29.929Z,14.10
2022-10-03T18:21:06.155Z,14.10
2022-10-03T18:23:56.077Z,14.10
2022-10-03T18:26:31.254Z,14.00
2022-10-03T18:29:06.849Z,14.00
2022-10-03T18:31:35.079Z,14.00
2022-10-03T18:34:13.772Z,13.90
2022-10-03T18:36:47.353Z,13.90
2022-10-03T18:39:23.480Z,13.80
2022-10-03T18:41:55.117Z,13.90
2022-10-03T18:44:24.090Z,13.90
2022-10-03T18:47:13.169Z,13.90
2022-10-03T18:49:47.860Z,13.90
2022-10-03T18:52:33.457Z,13.90
2022-10-03T18:55:10.627Z,13.90
2022-10-03T18:57:48.075Z,13.90
2022-10-03T19:00:19.221Z,13.90
2022-10-03T19:03:02.309Z,13.80
2022-10-03T19:05:37.572Z,13.90
2022-10-03T19:08:25.864Z,13.80
2022-10-03T19:11:16.060Z,13.70
2022-10-03T19:14:13.520Z,13.70
2022-10-03T19:16:45.077Z,13.70
2022-10-03T19:19:22.744Z,13.70
2022-10-03T19:21:50.230Z,13.70
2022-10-03T19:24:53.504Z,13.70
2022-10-03T19:27:20.817Z,13.80
2022-10-03T19:29:56.314Z,13.90
2022-10-03T19:32:32.239Z,13.90
2022-10-03T19:35:03.840Z,13.80
2022-10-03T19:37:46.087Z,13.80
2022-10-03T19:40:26.948Z,13.80
2022-10-03T19:43:18.051Z,13.80
2022-10-03T19:46:22.592Z,13.70
2022-10-03T19:49:05.323Z,13.70
2022-10-03T19:51:32.032Z,13.60
2022-10-03T19:53:59.760Z,13.60
2022-10-03T19:56:32.036Z,13.60
2022-10-03T19:59:04.689Z,13.60
2022-10-03T20:01:48.988Z,13.60
2022-10-03T20:04:19.572Z,13.60
2022-10-03T20:06:49.758Z,13.60
2022-10-03T20:09:30.554Z,13.60
2022-10-03T20:12:01.614Z,13.60
2022-10-03T20:14:44.468Z,13.60
2022-10-03T20:17:14.805Z,13.50
2022-10-03T20:19:54.321Z,13.50
2022-10-03T20:22:27.050Z,13.50
2022-10-03T20:24:53.939Z,13.50
2022-10-03T20:27:23.791Z,13.40
2022-10-03T20:30:05.552Z,13.40
2022-10-03T20:32:34.433Z,13.40
2022-10-03T20:35:01.253Z,13.30
2022-10-03T20:37:46.419Z,13.30
2022-10-03T20:40:29.141Z,13.30
2022-10-03T20:43:14.200Z,13.30
2022-10-03T20:45:43.604Z,13.30
2022-10-03T20:48:16.563Z,13.30
2022-10-03T20:50:47.989Z,13.40
2022-10-03T20:53:23.296Z,13.40
2022-10-03T20:55:53.632Z,13.40
2022-10-03T20:58:28.596Z,13.40
2022-10-03T21:01:07.827Z,13.40
2022-10-03T21:03:41.124Z,13.40
2022-10-03T21:06:30.188Z,13.40
2022-10-03T21:08:58.162Z,13.40
2022-10-03T21:11:28.486Z,13.20
2022-10-03T21:13:59.627Z,13.20
2022-10-03T21:16:35.062Z,13.10
2022-10-03T21:19:05.702Z,13.10
2022-10-03T21:21:43.535Z,13.00
2022-10-03T21:24:27.822Z,12.90
2022-10-03T21:27:01.458Z,12.90
2022-10-03T21:29:36.386Z,12.90
2022-10-03T21:32:51.917Z,12.90
2022-10-03T21:35:30.922Z,12.90
2022-10-03T21:38:19.247Z,12.80
2022-10-03T21:41:07.041Z,12.80
2022-10-03T21:44:08.876Z,12.70
2022-10-03T21:46:55.292Z,12.70
2022-10-03T21:50:12.199Z,12.70
2022-10-03T21:52:44.514Z,12.70
2022-10-03T21:55:52.575Z,12.60
2022-10-03T21:58:38.846Z,12.70
2022-10-03T22:01:40.807Z,12.70
2022-10-03T22:04:22.516Z,12.70
2022-10-03T22:07:06.040Z,12.60
2022-10-03T22:09:32.819Z,12.60
2022-10-03T22:12:06.028Z,12.70
2022-10-03T22:15:00.130Z,12.70
2022-10-03T22:18:01.087Z,12.70
2022-10-03T22:20:33.366Z,12.70
2022-10-03T22:23:33.040Z,12.70
2022-10-03T22:26:13.108Z,12.70
2022-10-03T22:29:07.713Z,12.70
2022-10-03T22:31:47.303Z,12.70
2022-10-03T22:34:55.664Z,12.60
2022-10-03T22:37:23.092Z,12.60
2022-10-03T22:39:50.906Z,12.60
2022-10-03T22:42:18.582Z,12.60
2022-10-03T22:44:50.209Z,12.60
2022-10-03T22:47:30.484Z,12.60
2022-10-03T22:50:00.975Z,12.70
2022-10-03T22:52:32.311Z,12.70
2022-10-03T22:55:02.568Z,12.70
2022-10-03T22:57:32.633Z,12.80
2022-10-03T23:00:08.695Z,12.80
2022-10-03T23:02:43.746Z,12.90
2022-10-03T23:05:32.620Z,12.90
2022-10-03T23:08:23.250Z,12.90
2022-10-03T23:11:01.794Z,12.90
2022-10-03T23:13:41.474Z,12.90
2022-10-03T23:16:32.746Z,12.90
2022-10-03T23:19:29.796Z,12.90
2022-10-03T23:21:58.127Z,12.90
2022-10-03T23:24:49.763Z,12.90
2022-10-03T23:27:54.672Z,12.90
2022-10-03T23:30:23.977Z,12.90
2022-10-03T23:32:52.220Z,12.80
2022-10-03T23:35:30.932Z,12.70
2022-10-03T23:37:59.003Z,12.60
2022-10-03T23:40:37.197Z,12.50
2022-10-03T23:43:23.218Z,12.50
2022-10-03T23:45:52.957Z,12.50
2022-10-03T23:48:23.162Z,12.40
2022-10-03T23:50:58.572Z,12.50
2022-10-03T23:53:32.521Z,12.50
2022-10-03T23:56:04.541Z,12.40
2022-10-03T23:58:37.507Z,12.40
